ADDS METAR Data INFO
IDs: Format: Raw Decoded Include TAF

Data at: 1217 UTC 23 Mar 2017

METAR for:KSJC (San Jose Intl Arpt, CA, US)
Text:KSJC 231153Z AUTO 30004KT 10SM FEW029 OVC038 11/07 A3016 RMK AO2 SLP211 70020 T01060067 10106 20094 56001
Temperature: 10.6°C ( 51°F)
Dewpoint: 6.7°C ( 44°F) [RH = 77%]
Pressure (altimeter):30.16 inches Hg (1021.4 mb) [Sea level pressure: 1021.1 mb]
Winds:from the WNW (300 degrees) at 5 MPH (4 knots; 2.1 m/s)
Visibility:10 or more sm (16+ km)
Ceiling:3800 feet AGL
Clouds: few clouds at 2900 feet AGL, overcast cloud deck at 3800 feet AGL
QC Flag:automated observation with no human augmentation
Text:KSJC 231131Z AUTO 29004KT 10SM SCT025 OVC034 11/07 A3016 RMK AO2 T01060067
Temperature: 10.6°C ( 51°F)
Dewpoint: 6.7°C ( 44°F) [RH = 77%]
Pressure (altimeter):30.16 inches Hg (1021.4 mb)
Winds:from the WNW (290 degrees) at 5 MPH (4 knots; 2.1 m/s)
Visibility:10 or more sm (16+ km)
Ceiling:3400 feet AGL
Clouds: scattered clouds at 2500 feet AGL, overcast cloud deck at 3400 feet AGL
QC Flag:automated observation with no human augmentation
Text:KSJC 231119Z AUTO 29005KT 10SM BKN027 OVC035 11/07 A3016 RMK AO2 T01060067
Temperature: 10.6°C ( 51°F)
Dewpoint: 6.7°C ( 44°F) [RH = 77%]
Pressure (altimeter):30.16 inches Hg (1021.4 mb)
Winds:from the WNW (290 degrees) at 6 MPH (5 knots; 2.6 m/s)
Visibility:10 or more sm (16+ km)
Ceiling:2700 feet AGL
Clouds: broken clouds at 2700 feet AGL, overcast cloud deck at 3500 feet AGL
QC Flag:automated observation with no human augmentation
Text:KSJC 231105Z AUTO 27006KT 10SM FEW025 OVC036 11/06 A3016 RMK AO2 T01060061
Temperature: 10.6°C ( 51°F)
Dewpoint: 6.1°C ( 43°F) [RH = 74%]
Pressure (altimeter):30.16 inches Hg (1021.4 mb)
Winds:from the W (270 degrees) at 7 MPH (6 knots; 3.1 m/s)
Visibility:10 or more sm (16+ km)
Ceiling:3600 feet AGL
Clouds: few clouds at 2500 feet AGL, overcast cloud deck at 3600 feet AGL
QC Flag:automated observation with no human augmentation
Text:KSJC 231053Z AUTO 25007KT 10SM BKN025 OVC034 11/06 A3016 RMK AO2 SLP211 T01060061
Temperature: 10.6°C ( 51°F)
Dewpoint: 6.1°C ( 43°F) [RH = 74%]
Pressure (altimeter):30.16 inches Hg (1021.4 mb) [Sea level pressure: 1021.1 mb]
Winds:from the WSW (250 degrees) at 8 MPH (7 knots; 3.6 m/s)
Visibility:10 or more sm (16+ km)
Ceiling:2500 feet AGL
Clouds: broken clouds at 2500 feet AGL, overcast cloud deck at 3400 feet AGL
QC Flag:automated observation with no human augmentation
Text:KSJC 231026Z AUTO 23003KT 10SM BKN026 OVC034 10/06 A3016 RMK AO2 T01000061
Temperature: 10.0°C ( 50°F)
Dewpoint: 6.1°C ( 43°F) [RH = 77%]
Pressure (altimeter):30.16 inches Hg (1021.4 mb)
Winds:from the SW (230 degrees) at 3 MPH (3 knots; 1.5 m/s)
Visibility:10 or more sm (16+ km)
Ceiling:2600 feet AGL
Clouds: broken clouds at 2600 feet AGL, overcast cloud deck at 3400 feet AGL
QC Flag:automated observation with no human augmentation
Text:KSJC 230953Z AUTO 23005KT 10SM BKN037 10/06 A3016 RMK AO2 SLP211 T01000061
Temperature: 10.0°C ( 50°F)
Dewpoint: 6.1°C ( 43°F) [RH = 77%]
Pressure (altimeter):30.16 inches Hg (1021.4 mb) [Sea level pressure: 1021.1 mb]
Winds:from the SW (230 degrees) at 6 MPH (5 knots; 2.6 m/s)
Visibility:10 or more sm (16+ km)
Ceiling:3700 feet AGL
Clouds: broken clouds at 3700 feet AGL
QC Flag:automated observation with no human augmentation
Text:KSJC 230853Z AUTO 26006KT 10SM CLR 10/06 A3016 RMK AO2 SLP212 T01000056 53008
Temperature: 10.0°C ( 50°F)
Dewpoint: 5.6°C ( 42°F) [RH = 74%]
Pressure (altimeter):30.16 inches Hg (1021.4 mb) [Sea level pressure: 1021.2 mb]
Winds:from the W (260 degrees) at 7 MPH (6 knots; 3.1 m/s)
Visibility:10 or more sm (16+ km)
Ceiling:at least 12,000 feet AGL
Clouds:sky clear below 12,000 feet AGL
QC Flag:automated observation with no human augmentation
Text:KSJC 230753Z AUTO 26011KT 10SM FEW049 11/06 A3015 RMK AO2 SLP207 T01060061 401610100
Temperature: 10.6°C ( 51°F)
Dewpoint: 6.1°C ( 43°F) [RH = 74%]
Pressure (altimeter):30.15 inches Hg (1021.1 mb) [Sea level pressure: 1020.7 mb]
Winds:from the W (260 degrees) at 13 MPH (11 knots; 5.7 m/s)
Visibility:10 or more sm (16+ km)
Ceiling:at least 12,000 feet AGL
Clouds: few clouds at 4900 feet AGL
QC Flag:automated observation with no human augmentation
Text:KSJC 230653Z 25007KT 10SM SCT010 BKN043 11/06 A3014 RMK AO2 SLP206 LAST T01060056
Temperature: 10.6°C ( 51°F)
Dewpoint: 5.6°C ( 42°F) [RH = 71%]
Pressure (altimeter):30.14 inches Hg (1020.7 mb) [Sea level pressure: 1020.6 mb]
Winds:from the WSW (250 degrees) at 8 MPH (7 knots; 3.6 m/s)
Visibility:10 or more sm (16+ km)
Ceiling:4300 feet AGL
Clouds: scattered clouds at 1000 feet AGL, broken clouds at 4300 feet AGL
Text:KSJC 230553Z 24005KT 10SM SCT010 BKN038 10/06 A3014 RMK AO2 SLP204 T01000056 10150 20100 51015
Temperature: 10.0°C ( 50°F)
Dewpoint: 5.6°C ( 42°F) [RH = 74%]
Pressure (altimeter):30.14 inches Hg (1020.7 mb) [Sea level pressure: 1020.4 mb]
Winds:from the WSW (240 degrees) at 6 MPH (5 knots; 2.6 m/s)
Visibility:10 or more sm (16+ km)
Ceiling:3800 feet AGL
Clouds: scattered clouds at 1000 feet AGL, broken clouds at 3800 feet AGL
Text:KSJC 230453Z 27006KT 10SM FEW010 SCT042 11/06 A3013 RMK AO2 SLP201 T01060056
Temperature: 10.6°C ( 51°F)
Dewpoint: 5.6°C ( 42°F) [RH = 71%]
Pressure (altimeter):30.13 inches Hg (1020.4 mb) [Sea level pressure: 1020.1 mb]
Winds:from the W (270 degrees) at 7 MPH (6 knots; 3.1 m/s)
Visibility:10 or more sm (16+ km)
Ceiling:at least 12,000 feet AGL
Clouds: few clouds at 1000 feet AGL, scattered clouds at 4200 feet AGL
Text:KSJC 230353Z 27008KT 10SM FEW010 SCT042 11/06 A3011 RMK AO2 SLP197 T01110056
Temperature: 11.1°C ( 52°F)
Dewpoint: 5.6°C ( 42°F) [RH = 69%]
Pressure (altimeter):30.11 inches Hg (1019.7 mb) [Sea level pressure: 1019.7 mb]
Winds:from the W (270 degrees) at 9 MPH (8 knots; 4.1 m/s)
Visibility:10 or more sm (16+ km)
Ceiling:at least 12,000 feet AGL
Clouds: few clouds at 1000 feet AGL, scattered clouds at 4200 feet AGL
Text:KSJC 230253Z 28011KT 10SM FEW015 FEW042 12/05 A3009 RMK AO2 SLP190 T01170050 53010
Temperature: 11.7°C ( 53°F)
Dewpoint: 5.0°C ( 41°F) [RH = 63%]
Pressure (altimeter):30.09 inches Hg (1019.0 mb) [Sea level pressure: 1019.0 mb]
Winds:from the W (280 degrees) at 13 MPH (11 knots; 5.7 m/s)
Visibility:10 or more sm (16+ km)
Ceiling:at least 12,000 feet AGL
Clouds: few clouds at 1500 feet AGL, few clouds at 4200 feet AGL
Text:KSJC 230153Z 30013KT 10SM FEW018 SCT047 12/06 A3008 RMK AO2 SLP185 T01220056
Temperature: 12.2°C ( 54°F)
Dewpoint: 5.6°C ( 42°F) [RH = 64%]
Pressure (altimeter):30.08 inches Hg (1018.7 mb) [Sea level pressure: 1018.5 mb]
Winds:from the WNW (300 degrees) at 15 MPH (13 knots; 6.7 m/s)
Visibility:10 or more sm (16+ km)
Ceiling:at least 12,000 feet AGL
Clouds: few clouds at 1800 feet AGL, scattered clouds at 4700 feet AGL
Text:KSJC 230053Z 29014G19KT 10SM FEW020 SCT050 14/05 A3007 RMK AO2 SLP181 T01390050
Temperature: 13.9°C ( 57°F)
Dewpoint: 5.0°C ( 41°F) [RH = 55%]
Pressure (altimeter):30.07 inches Hg (1018.4 mb) [Sea level pressure: 1018.1 mb]
Winds:from the WNW (290 degrees) at 16 MPH (14 knots; 7.2 m/s) gusting to 22 MPH (19 knots; 9.8 m/s)
Visibility:10 or more sm (16+ km)
Ceiling:at least 12,000 feet AGL
Clouds: few clouds at 2000 feet AGL, scattered clouds at 5000 feet AGL


Page loaded:  12:17 UTC  |   05:17 AM Pacific  |   06:17 AM Mountain  |   07:17 AM Central  |   08:17 AM Eastern

 

ADVISORIES

FORECASTS

FORECASTS

OBSERVATIONS

USER TOOLS

ABOUT US